sensor_id;sensor_type;location;lat;lon;timestamp;pressure;altitude;pressure_sealevel;temperature;humidity
60715;BME280;46564;53.096;8.246;2023-06-14T00:04:39;101636.25;;;15.37;61.86
60715;BME280;46564;53.096;8.246;2023-06-14T00:09:43;101638.78;;;15.27;62.32
60715;BME280;46564;53.096;8.246;2023-06-14T00:14:44;101645.72;;;15.20;62.73
60715;BME280;46564;53.096;8.246;2023-06-14T00:19:46;101645.59;;;15.08;63.41
60715;BME280;46564;53.096;8.246;2023-06-14T00:24:48;101645.47;;;14.98;63.84
60715;BME280;46564;53.096;8.246;2023-06-14T00:29:50;101643.53;;;14.85;64.21
60715;BME280;46564;53.096;8.246;2023-06-14T00:34:52;101651.38;;;14.79;64.70
60715;BME280;46564;53.096;8.246;2023-06-14T00:39:54;101652.91;;;14.64;65.28
60715;BME280;46564;53.096;8.246;2023-06-14T00:44:56;101652.91;;;14.63;65.79
60715;BME280;46564;53.096;8.246;2023-06-14T00:49:58;101654.44;;;14.50;66.24
60715;BME280;46564;53.096;8.246;2023-06-14T00:55:00;101646.41;;;14.42;66.68
60715;BME280;46564;53.096;8.246;2023-06-14T01:00:04;101650.72;;;14.36;67.17
60715;BME280;46564;53.096;8.246;2023-06-14T01:05:10;101651.53;;;14.31;67.58
60715;BME280;46564;53.096;8.246;2023-06-14T01:10:46;101655.03;;;14.32;67.81
60715;BME280;46564;53.096;8.246;2023-06-14T01:15:53;101655.91;;;14.29;68.33
60715;BME280;46564;53.096;8.246;2023-06-14T01:20:56;101653.22;;;14.26;68.50
60715;BME280;46564;53.096;8.246;2023-06-14T01:25:59;101663.66;;;14.20;68.99
60715;BME280;46564;53.096;8.246;2023-06-14T01:31:06;101653.88;;;14.13;69.18
60715;BME280;46564;53.096;8.246;2023-06-14T01:36:09;101649.38;;;14.07;69.63
60715;BME280;46564;53.096;8.246;2023-06-14T01:41:11;101656.22;;;13.96;70.16
60715;BME280;46564;53.096;8.246;2023-06-14T01:46:14;101655.34;;;13.95;70.20
60715;BME280;46564;53.096;8.246;2023-06-14T01:51:17;101659.59;;;13.87;70.60
60715;BME280;46564;53.096;8.246;2023-06-14T01:56:19;101658.66;;;13.85;70.90
60715;BME280;46564;53.096;8.246;2023-06-14T02:01:22;101665.72;;;13.86;71.11
60715;BME280;46564;53.096;8.246;2023-06-14T02:06:26;101665.66;;;13.83;71.17
60715;BME280;46564;53.096;8.246;2023-06-14T02:11:29;101664.66;;;13.78;71.44
60715;BME280;46564;53.096;8.246;2023-06-14T02:16:31;101664.56;;;13.72;71.75
60715;BME280;46564;53.096;8.246;2023-06-14T02:21:34;101666.25;;;13.68;71.82
60715;BME280;46564;53.096;8.246;2023-06-14T02:26:36;101673.25;;;13.66;72.13
60715;BME280;46564;53.096;8.246;2023-06-14T02:31:43;101665.34;;;13.65;72.06
60715;BME280;46564;53.096;8.246;2023-06-14T02:36:44;101674.84;;;13.58;72.28
60715;BME280;46564;53.096;8.246;2023-06-14T02:41:46;101681.75;;;13.51;72.57
60715;BME280;46564;53.096;8.246;2023-06-14T02:46:48;101681.69;;;13.48;72.70
60715;BME280;46564;53.096;8.246;2023-06-14T02:51:51;101684.34;;;13.50;72.77
60715;BME280;46564;53.096;8.246;2023-06-14T02:56:53;101686.00;;;13.46;73.11
60715;BME280;46564;53.096;8.246;2023-06-14T03:01:55;101695.63;;;13.44;73.15
60715;BME280;46564;53.096;8.246;2023-06-14T03:06:56;101701.56;;;13.34;73.53
60715;BME280;46564;53.096;8.246;2023-06-14T03:11:59;101709.47;;;13.34;73.69
60715;BME280;46564;53.096;8.246;2023-06-14T03:17:01;101712.84;;;13.30;73.93
60715;BME280;46564;53.096;8.246;2023-06-14T03:22:05;101718.03;;;13.26;74.22
60715;BME280;46564;53.096;8.246;2023-06-14T03:27:10;101722.31;;;13.21;74.62
60715;BME280;46564;53.096;8.246;2023-06-14T03:32:16;101724.06;;;13.22;74.92
60715;BME280;46564;53.096;8.246;2023-06-14T03:37:19;101728.34;;;13.16;75.17
60715;BME280;46564;53.096;8.246;2023-06-14T03:42:21;101734.41;;;13.13;75.57
60715;BME280;46564;53.096;8.246;2023-06-14T03:47:24;101736.13;;;13.11;75.83
60715;BME280;46564;53.096;8.246;2023-06-14T03:52:27;101730.94;;;13.14;76.08
60715;BME280;46564;53.096;8.246;2023-06-14T03:57:29;101741.50;;;13.17;76.10
60715;BME280;46564;53.096;8.246;2023-06-14T04:02:31;101745.06;;;13.19;76.20
60715;BME280;46564;53.096;8.246;2023-06-14T04:07:33;101746.06;;;13.24;76.15
60715;BME280;46564;53.096;8.246;2023-06-14T04:12:43;101757.63;;;13.33;76.30
60715;BME280;46564;53.096;8.246;2023-06-14T04:17:45;101753.53;;;13.46;75.95
60715;BME280;46564;53.096;8.246;2023-06-14T04:22:46;101765.25;;;13.61;75.72
60715;BME280;46564;53.096;8.246;2023-06-14T04:27:48;101762.25;;;13.86;75.86
60715;BME280;46564;53.096;8.246;2023-06-14T04:32:51;101768.72;;;14.05;75.29
60715;BME280;46564;53.096;8.246;2023-06-14T04:37:56;101767.16;;;14.14;74.79
60715;BME280;46564;53.096;8.246;2023-06-14T04:42:59;101769.06;;;14.23;74.53
60715;BME280;46564;53.096;8.246;2023-06-14T04:48:01;101768.19;;;14.24;74.26
60715;BME280;46564;53.096;8.246;2023-06-14T04:53:03;101772.69;;;14.30;74.17
60715;BME280;46564;53.096;8.246;2023-06-14T04:58:05;101780.63;;;14.33;74.11
60715;BME280;46564;53.096;8.246;2023-06-14T05:03:07;101784.38;;;14.46;73.91
60715;BME280;46564;53.096;8.246;2023-06-14T05:08:08;101777.44;;;14.53;73.62
60715;BME280;46564;53.096;8.246;2023-06-14T05:13:12;101793.38;;;14.60;73.45
60715;BME280;46564;53.096;8.246;2023-06-14T05:18:13;101793.59;;;14.71;73.35
60715;BME280;46564;53.096;8.246;2023-06-14T05:23:16;101789.34;;;14.79;73.43
60715;BME280;46564;53.096;8.246;2023-06-14T05:28:18;101805.34;;;14.92;72.85
60715;BME280;46564;53.096;8.246;2023-06-14T05:33:20;101800.38;;;15.10;72.76
60715;BME280;46564;53.096;8.246;2023-06-14T05:38:22;101801.66;;;15.42;72.02
60715;BME280;46564;53.096;8.246;2023-06-14T05:43:23;101811.78;;;15.75;71.34
60715;BME280;46564;53.096;8.246;2023-06-14T05:48:25;101811.78;;;15.75;71.34
60715;BME280;46564;53.096;8.246;2023-06-14T05:53:27;101812.44;;;16.34;69.70
60715;BME280;46564;53.096;8.246;2023-06-14T05:58:29;101818.88;;;16.64;68.98
60715;BME280;46564;53.096;8.246;2023-06-14T06:03:31;101817.09;;;16.61;68.17
60715;BME280;46564;53.096;8.246;2023-06-14T06:08:32;101824.19;;;16.68;67.48
60715;BME280;46564;53.096;8.246;2023-06-14T06:13:34;101841.97;;;16.85;67.05
60715;BME280;46564;53.096;8.246;2023-06-14T06:18:36;101833.38;;;17.15;66.58
60715;BME280;46564;53.096;8.246;2023-06-14T06:23:38;101829.22;;;17.57;65.90
60715;BME280;46564;53.096;8.246;2023-06-14T06:28:40;101834.72;;;18.02;65.06
60715;BME280;46564;53.096;8.246;2023-06-14T06:33:42;101825.06;;;18.38;63.51
60715;BME280;46564;53.096;8.246;2023-06-14T06:38:43;101829.50;;;18.62;62.17
60715;BME280;46564;53.096;8.246;2023-06-14T06:43:45;101841.91;;;18.88;60.77
60715;BME280;46564;53.096;8.246;2023-06-14T06:48:50;101848.94;;;19.29;59.93
60715;BME280;46564;53.096;8.246;2023-06-14T06:53:53;101862.16;;;19.52;59.00
60715;BME280;46564;53.096;8.246;2023-06-14T06:58:55;101858.50;;;19.90;57.86
60715;BME280;46564;53.096;8.246;2023-06-14T07:03:57;101860.00;;;20.38;57.08
60715;BME280;46564;53.096;8.246;2023-06-14T07:08:59;101851.91;;;20.55;55.76
60715;BME280;46564;53.096;8.246;2023-06-14T07:14:03;101853.59;;;20.65;55.21
60715;BME280;46564;53.096;8.246;2023-06-14T07:19:04;101855.97;;;21.02;55.13
60715;BME280;46564;53.096;8.246;2023-06-14T07:24:06;101860.44;;;20.98;54.11
60715;BME280;46564;53.096;8.246;2023-06-14T07:29:09;101863.75;;;21.24;53.60
60715;BME280;46564;53.096;8.246;2023-06-14T07:34:11;101862.84;;;21.26;53.27
60715;BME280;46564;53.096;8.246;2023-06-14T07:39:13;101855.56;;;21.41;53.15
60715;BME280;46564;53.096;8.246;2023-06-14T07:44:15;101858.13;;;21.54;52.44
60715;BME280;46564;53.096;8.246;2023-06-14T07:49:17;101854.38;;;21.73;51.49
60715;BME280;46564;53.096;8.246;2023-06-14T07:54:19;101853.75;;;22.19;51.05
60715;BME280;46564;53.096;8.246;2023-06-14T07:59:26;101851.69;;;22.38;50.54
60715;BME280;46564;53.096;8.246;2023-06-14T08:04:28;101860.81;;;22.21;49.50
60715;BME280;46564;53.096;8.246;2023-06-14T08:09:30;101866.22;;;22.77;48.96
60715;BME280;46564;53.096;8.246;2023-06-14T08:14:32;101861.78;;;22.75;47.67
60715;BME280;46564;53.096;8.246;2023-06-14T08:19:34;101869.44;;;22.95;47.02
60715;BME280;46564;53.096;8.246;2023-06-14T08:24:36;101859.44;;;23.09;46.15
60715;BME280;46564;53.096;8.246;2023-06-14T08:29:37;101861.06;;;23.18;45.45
60715;BME280;46564;53.096;8.246;2023-06-14T08:34:41;101856.66;;;23.16;45.00
60715;BME280;46564;53.096;8.246;2023-06-14T08:39:56;101860.00;;;23.28;44.67
60715;BME280;46564;53.096;8.246;2023-06-14T08:44:58;101862.38;;;23.44;44.17
60715;BME280;46564;53.096;8.246;2023-06-14T08:50:01;101859.09;;;23.73;43.66
60715;BME280;46564;53.096;8.246;2023-06-14T08:55:07;101878.88;;;23.66;43.08
60715;BME280;46564;53.096;8.246;2023-06-14T09:00:12;101865.84;;;23.47;42.96
60715;BME280;46564;53.096;8.246;2023-06-14T09:05:15;101872.00;;;23.53;42.86
60715;BME280;46564;53.096;8.246;2023-06-14T09:10:21;101866.06;;;23.37;42.48
60715;BME280;46564;53.096;8.246;2023-06-14T09:15:23;101873.19;;;23.81;42.57
60715;BME280;46564;53.096;8.246;2023-06-14T09:20:26;101877.19;;;24.04;42.03
60715;BME280;46564;53.096;8.246;2023-06-14T09:25:28;101875.38;;;24.05;41.76
60715;BME280;46564;53.096;8.246;2023-06-14T09:30:40;101880.41;;;24.20;41.61
60715;BME280;46564;53.096;8.246;2023-06-14T09:35:45;101890.31;;;24.54;41.41
60715;BME280;46564;53.096;8.246;2023-06-14T09:40:47;101878.59;;;24.22;41.16
60715;BME280;46564;53.096;8.246;2023-06-14T09:45:50;101885.28;;;24.01;41.70
60715;BME280;46564;53.096;8.246;2023-06-14T09:50:55;101879.84;;;24.06;41.51
60715;BME280;46564;53.096;8.246;2023-06-14T09:55:59;101878.06;;;24.44;41.26
60715;BME280;46564;53.096;8.246;2023-06-14T10:01:01;101874.56;;;24.79;40.97
60715;BME280;46564;53.096;8.246;2023-06-14T10:06:05;101874.56;;;24.79;40.97
60715;BME280;46564;53.096;8.246;2023-06-14T10:11:11;101869.44;;;24.70;40.94
60715;BME280;46564;53.096;8.246;2023-06-14T10:16:19;101872.22;;;25.36;40.77
60715;BME280;46564;53.096;8.246;2023-06-14T10:21:38;101869.88;;;25.22;40.28
60715;BME280;46564;53.096;8.246;2023-06-14T10:26:51;101872.19;;;25.37;40.81
60715;BME280;46564;53.096;8.246;2023-06-14T10:31:58;101872.75;;;25.14;40.20
60715;BME280;46564;53.096;8.246;2023-06-14T10:37:20;101873.47;;;24.88;39.85
60715;BME280;46564;53.096;8.246;2023-06-14T10:42:28;101866.06;;;24.62;40.83
60715;BME280;46564;53.096;8.246;2023-06-14T10:47:33;101860.81;;;24.93;40.71
60715;BME280;46564;53.096;8.246;2023-06-14T10:52:45;101851.47;;;24.75;40.63
60715;BME280;46564;53.096;8.246;2023-06-14T10:57:49;101862.72;;;24.90;40.67
60715;BME280;46564;53.096;8.246;2023-06-14T11:08:39;101848.72;;;25.11;39.78
60715;BME280;46564;53.096;8.246;2023-06-14T11:13:45;101845.91;;;24.83;40.49
60715;BME280;46564;53.096;8.246;2023-06-14T11:18:49;101841.28;;;24.90;40.72
60715;BME280;46564;53.096;8.246;2023-06-14T11:23:51;101836.31;;;25.09;40.12
60715;BME280;46564;53.096;8.246;2023-06-14T11:28:58;101827.75;;;25.27;39.83
60715;BME280;46564;53.096;8.246;2023-06-14T11:34:01;101830.97;;;25.07;39.44
60715;BME280;46564;53.096;8.246;2023-06-14T11:39:03;101823.88;;;25.06;39.49
60715;BME280;46564;53.096;8.246;2023-06-14T11:44:07;101816.31;;;24.87;39.92
60715;BME280;46564;53.096;8.246;2023-06-14T11:49:09;101821.25;;;24.70;40.14
60715;BME280;46564;53.096;8.246;2023-06-14T11:54:11;101806.25;;;24.25;40.18
60715;BME280;46564;53.096;8.246;2023-06-14T11:59:13;101816.78;;;25.03;40.50
60715;BME280;46564;53.096;8.246;2023-06-14T12:04:23;101808.44;;;25.47;39.98
60715;BME280;46564;53.096;8.246;2023-06-14T12:09:26;101817.25;;;24.86;39.78
60715;BME280;46564;53.096;8.246;2023-06-14T12:14:29;101799.47;;;24.10;39.97
60715;BME280;46564;53.096;8.246;2023-06-14T12:19:32;101797.41;;;24.61;40.14
60715;BME280;46564;53.096;8.246;2023-06-14T12:24:33;101803.66;;;24.60;40.28
60715;BME280;46564;53.096;8.246;2023-06-14T12:29:35;101796.66;;;25.21;39.30
60715;BME280;46564;53.096;8.246;2023-06-14T12:34:37;101797.16;;;25.03;39.19
60715;BME280;46564;53.096;8.246;2023-06-14T12:39:38;101794.56;;;24.67;38.92
60715;BME280;46564;53.096;8.246;2023-06-14T12:44:41;101793.44;;;24.76;38.34
60715;BME280;46564;53.096;8.246;2023-06-14T12:49:44;101798.50;;;24.86;38.68
60715;BME280;46564;53.096;8.246;2023-06-14T12:54:46;101802.78;;;24.94;38.97
60715;BME280;46564;53.096;8.246;2023-06-14T12:59:47;101795.00;;;24.47;38.89
60715;BME280;46564;53.096;8.246;2023-06-14T13:04:49;101782.00;;;25.02;39.32
60715;BME280;46564;53.096;8.246;2023-06-14T13:09:50;101793.38;;;25.43;38.37
60715;BME280;46564;53.096;8.246;2023-06-14T13:14:52;101787.09;;;26.04;38.44
60715;BME280;46564;53.096;8.246;2023-06-14T13:19:54;101790.22;;;26.18;38.11
60715;BME280;46564;53.096;8.246;2023-06-14T13:24:56;101787.19;;;25.41;37.88
60715;BME280;46564;53.096;8.246;2023-06-14T13:29:58;101788.31;;;25.64;38.02
60715;BME280;46564;53.096;8.246;2023-06-14T13:34:59;101783.22;;;25.84;37.87
60715;BME280;46564;53.096;8.246;2023-06-14T13:40:01;101777.59;;;25.92;37.53
60715;BME280;46564;53.096;8.246;2023-06-14T13:45:04;101784.19;;;25.82;37.38
60715;BME280;46564;53.096;8.246;2023-06-14T13:50:06;101788.00;;;25.43;37.63
60715;BME280;46564;53.096;8.246;2023-06-14T13:55:08;101796.13;;;25.09;38.23
60715;BME280;46564;53.096;8.246;2023-06-14T14:00:12;101793.59;;;25.35;38.08
60715;BME280;46564;53.096;8.246;2023-06-14T14:05:15;101769.13;;;26.06;38.00
60715;BME280;46564;53.096;8.246;2023-06-14T14:10:16;101770.59;;;26.43;37.44
60715;BME280;46564;53.096;8.246;2023-06-14T14:15:19;101768.75;;;26.45;36.95
60715;BME280;46564;53.096;8.246;2023-06-14T14:20:20;101773.19;;;25.89;37.42
60715;BME280;46564;53.096;8.246;2023-06-14T14:25:22;101767.66;;;25.67;38.27
60715;BME280;46564;53.096;8.246;2023-06-14T14:30:24;101760.66;;;26.20;38.03
60715;BME280;46564;53.096;8.246;2023-06-14T14:35:26;101772.88;;;26.28;37.75
60715;BME280;46564;53.096;8.246;2023-06-14T14:40:32;101760.38;;;26.01;37.48
60715;BME280;46564;53.096;8.246;2023-06-14T14:45:36;101774.69;;;25.07;37.24
60715;BME280;46564;53.096;8.246;2023-06-14T14:50:37;101775.81;;;25.00;37.77
60715;BME280;46564;53.096;8.246;2023-06-14T14:55:39;101773.31;;;24.94;38.23
60715;BME280;46564;53.096;8.246;2023-06-14T15:00:42;101768.47;;;25.06;38.39
60715;BME280;46564;53.096;8.246;2023-06-14T15:05:44;101777.47;;;25.04;38.47
60715;BME280;46564;53.096;8.246;2023-06-14T15:10:46;101768.13;;;24.86;38.94
60715;BME280;46564;53.096;8.246;2023-06-14T15:15:48;101774.13;;;24.63;39.27
60715;BME280;46564;53.096;8.246;2023-06-14T15:20:50;101779.19;;;24.74;39.69
60715;BME280;46564;53.096;8.246;2023-06-14T15:25:52;101770.75;;;24.55;39.52
60715;BME280;46564;53.096;8.246;2023-06-14T15:30:56;101770.78;;;24.53;40.11
60715;BME280;46564;53.096;8.246;2023-06-14T15:35:58;101757.47;;;24.84;40.04
60715;BME280;46564;53.096;8.246;2023-06-14T15:41:00;101773.00;;;25.37;40.01
60715;BME280;46564;53.096;8.246;2023-06-14T15:46:02;101770.03;;;25.15;39.61
60715;BME280;46564;53.096;8.246;2023-06-14T15:51:04;101760.97;;;25.19;39.61
60715;BME280;46564;53.096;8.246;2023-06-14T15:56:05;101769.13;;;25.16;39.41
60715;BME280;46564;53.096;8.246;2023-06-14T16:01:07;101762.25;;;25.06;39.90
60715;BME280;46564;53.096;8.246;2023-06-14T16:06:08;101759.41;;;25.12;39.25
60715;BME280;46564;53.096;8.246;2023-06-14T16:11:10;101757.44;;;25.17;39.03
60715;BME280;46564;53.096;8.246;2023-06-14T16:16:12;101755.94;;;25.98;38.71
60715;BME280;46564;53.096;8.246;2023-06-14T16:21:14;101750.78;;;26.20;37.82
60715;BME280;46564;53.096;8.246;2023-06-14T16:26:17;101751.88;;;27.17;37.09
60715;BME280;46564;53.096;8.246;2023-06-14T16:31:18;101753.25;;;27.76;36.07
60715;BME280;46564;53.096;8.246;2023-06-14T16:36:24;101756.38;;;27.65;35.67
60715;BME280;46564;53.096;8.246;2023-06-14T16:41:27;101753.78;;;26.38;36.59
60715;BME280;46564;53.096;8.246;2023-06-14T16:46:30;101747.63;;;25.49;36.95
60715;BME280;46564;53.096;8.246;2023-06-14T16:51:32;101759.13;;;25.21;37.24
60715;BME280;46564;53.096;8.246;2023-06-14T16:56:33;101751.31;;;25.75;37.32
60715;BME280;46564;53.096;8.246;2023-06-14T17:01:35;101756.22;;;26.45;36.89
60715;BME280;46564;53.096;8.246;2023-06-14T17:06:37;101761.72;;;26.68;36.16
60715;BME280;46564;53.096;8.246;2023-06-14T17:11:38;101760.53;;;27.02;35.78
60715;BME280;46564;53.096;8.246;2023-06-14T17:16:40;101756.88;;;26.25;35.19
60715;BME280;46564;53.096;8.246;2023-06-14T17:21:42;101756.91;;;26.77;35.59
60715;BME280;46564;53.096;8.246;2023-06-14T17:26:50;101756.91;;;27.03;35.59
60715;BME280;46564;53.096;8.246;2023-06-14T17:31:52;101770.00;;;27.37;35.66
60715;BME280;46564;53.096;8.246;2023-06-14T17:36:54;101769.44;;;26.78;35.73
60715;BME280;46564;53.096;8.246;2023-06-14T17:41:55;101766.56;;;26.29;36.35
60715;BME280;46564;53.096;8.246;2023-06-14T17:46:58;101771.66;;;25.82;37.03
60715;BME280;46564;53.096;8.246;2023-06-14T17:51:59;101772.97;;;25.39;37.48
60715;BME280;46564;53.096;8.246;2023-06-14T17:57:01;101770.94;;;24.81;38.05
60715;BME280;46564;53.096;8.246;2023-06-14T18:02:03;101771.91;;;24.44;39.38
60715;BME280;46564;53.096;8.246;2023-06-14T18:07:05;101770.69;;;24.22;39.95
60715;BME280;46564;53.096;8.246;2023-06-14T18:12:07;101777.66;;;23.90;40.56
60715;BME280;46564;53.096;8.246;2023-06-14T18:17:10;101777.66;;;23.90;40.56
60715;BME280;46564;53.096;8.246;2023-06-14T18:22:12;101783.53;;;23.65;41.70
60715;BME280;46564;53.096;8.246;2023-06-14T18:27:14;101787.41;;;23.50;42.85
60715;BME280;46564;53.096;8.246;2023-06-14T18:32:15;101786.06;;;23.29;46.76
60715;BME280;46564;53.096;8.246;2023-06-14T18:37:17;101791.06;;;22.99;49.29
60715;BME280;46564;53.096;8.246;2023-06-14T18:42:19;101797.91;;;22.64;51.26
60715;BME280;46564;53.096;8.246;2023-06-14T18:47:22;101796.38;;;22.51;52.64
60715;BME280;46564;53.096;8.246;2023-06-14T18:52:23;101789.50;;;22.36;53.69
60715;BME280;46564;53.096;8.246;2023-06-14T18:57:28;101785.19;;;22.24;54.47
60715;BME280;46564;53.096;8.246;2023-06-14T19:02:30;57128.34;;;-147.53;100.00
60715;BME280;46564;53.096;8.246;2023-06-14T19:07:31;57128.34;;;-147.53;100.00
60715;BME280;46564;53.096;8.246;2023-06-14T19:12:33;101783.13;;;21.82;56.15
60715;BME280;46564;53.096;8.246;2023-06-14T19:17:34;101782.44;;;21.69;56.85
60715;BME280;46564;53.096;8.246;2023-06-14T19:22:36;101792.34;;;21.58;57.30
60715;BME280;46564;53.096;8.246;2023-06-14T19:27:38;101795.97;;;21.52;57.55
60715;BME280;46564;53.096;8.246;2023-06-14T19:32:40;101793.44;;;21.39;58.23
60715;BME280;46564;53.096;8.246;2023-06-14T19:37:42;101798.03;;;21.27;58.32
60715;BME280;46564;53.096;8.246;2023-06-14T19:42:43;101806.09;;;21.18;58.76
60715;BME280;46564;53.096;8.246;2023-06-14T19:47:45;101815.09;;;21.08;59.15
60715;BME280;46564;53.096;8.246;2023-06-14T19:52:47;101809.94;;;20.91;59.78
60715;BME280;46564;53.096;8.246;2023-06-14T19:57:48;101814.53;;;20.73;59.95
60715;BME280;46564;53.096;8.246;2023-06-14T20:02:50;101817.25;;;20.61;60.50
60715;BME280;46564;53.096;8.246;2023-06-14T20:07:53;101819.06;;;20.59;60.88
60715;BME280;46564;53.096;8.246;2023-06-14T20:12:54;101833.34;;;20.45;61.72
60715;BME280;46564;53.096;8.246;2023-06-14T20:17:56;101835.28;;;20.19;62.53
60715;BME280;46564;53.096;8.246;2023-06-14T20:22:58;101832.69;;;20.11;63.03
60715;BME280;46564;53.096;8.246;2023-06-14T20:27:59;101834.53;;;20.03;63.55
60715;BME280;46564;53.096;8.246;2023-06-14T20:33:01;101835.44;;;19.95;63.67
60715;BME280;46564;53.096;8.246;2023-06-14T20:38:03;101838.19;;;19.82;64.24
60715;BME280;46564;53.096;8.246;2023-06-14T20:43:05;101838.19;;;19.68;64.89
60715;BME280;46564;53.096;8.246;2023-06-14T20:48:08;101844.41;;;19.60;65.31
60715;BME280;46564;53.096;8.246;2023-06-14T20:53:11;101845.34;;;19.49;65.35
60715;BME280;46564;53.096;8.246;2023-06-14T20:58:13;101850.69;;;19.29;65.90
60715;BME280;46564;53.096;8.246;2023-06-14T21:03:18;101849.88;;;19.11;66.42
60715;BME280;46564;53.096;8.246;2023-06-14T21:08:19;101858.72;;;19.01;66.72
60715;BME280;46564;53.096;8.246;2023-06-14T21:13:22;101856.97;;;18.87;66.93
60715;BME280;46564;53.096;8.246;2023-06-14T21:18:24;101857.81;;;18.76;67.08
60715;BME280;46564;53.096;8.246;2023-06-14T21:23:26;101854.25;;;18.70;67.23
60715;BME280;46564;53.096;8.246;2023-06-14T21:28:28;101858.69;;;18.56;67.06
60715;BME280;46564;53.096;8.246;2023-06-14T21:33:29;101863.06;;;18.49;66.77
60715;BME280;46564;53.096;8.246;2023-06-14T21:38:31;101867.50;;;18.44;66.61
60715;BME280;46564;53.096;8.246;2023-06-14T21:43:32;101864.84;;;18.40;66.17
60715;BME280;46564;53.096;8.246;2023-06-14T21:48:34;101868.34;;;18.26;66.53
60715;BME280;46564;53.096;8.246;2023-06-14T21:53:36;101868.34;;;18.18;66.61
60715;BME280;46564;53.096;8.246;2023-06-14T21:58:38;101869.19;;;18.05;66.66
60715;BME280;46564;53.096;8.246;2023-06-14T22:03:40;101868.25;;;17.95;66.74
60715;BME280;46564;53.096;8.246;2023-06-14T22:08:42;101871.66;;;17.79;66.96
60715;BME280;46564;53.096;8.246;2023-06-14T22:13:46;101864.59;;;17.67;67.13
60715;BME280;46564;53.096;8.246;2023-06-14T22:18:49;101872.47;;;17.59;66.73
60715;BME280;46564;53.096;8.246;2023-06-14T22:23:51;101871.53;;;17.49;66.68
60715;BME280;46564;53.096;8.246;2023-06-14T22:28:53;101872.34;;;17.39;66.36
60715;BME280;46564;53.096;8.246;2023-06-14T22:33:54;101879.34;;;17.26;66.50
60715;BME280;46564;53.096;8.246;2023-06-14T22:38:56;101880.13;;;17.11;66.42
60715;BME280;46564;53.096;8.246;2023-06-14T22:44:04;101876.47;;;16.94;66.39
60715;BME280;46564;53.096;8.246;2023-06-14T22:49:07;101880.72;;;16.83;66.67
60715;BME280;46564;53.096;8.246;2023-06-14T22:54:09;101877.13;;;16.71;66.90
60715;BME280;46564;53.096;8.246;2023-06-14T22:59:11;101877.03;;;16.60;66.66
60715;BME280;46564;53.096;8.246;2023-06-14T23:04:12;101876.00;;;16.48;66.69
60715;BME280;46564;53.096;8.246;2023-06-14T23:09:14;101879.38;;;16.33;66.93
60715;BME280;46564;53.096;8.246;2023-06-14T23:14:16;101880.13;;;16.21;67.14
60715;BME280;46564;53.096;8.246;2023-06-14T23:19:18;101875.59;;;16.11;67.25
60715;BME280;46564;53.096;8.246;2023-06-14T23:24:21;101886.97;;;16.02;67.11
60715;BME280;46564;53.096;8.246;2023-06-14T23:29:26;101875.38;;;15.90;67.38
60715;BME280;46564;53.096;8.246;2023-06-14T23:34:35;101870.66;;;15.69;67.62
60715;BME280;46564;53.096;8.246;2023-06-14T23:39:37;101870.47;;;15.54;68.13
60715;BME280;46564;53.096;8.246;2023-06-14T23:44:49;101865.00;;;15.43;68.42
60715;BME280;46564;53.096;8.246;2023-06-14T23:49:51;101863.00;;;15.25;68.80
60715;BME280;46564;53.096;8.246;2023-06-14T23:54:53;101879.56;;;15.13;69.13
60715;BME280;46564;53.096;8.246;2023-06-14T23:59:55;101872.22;;;14.95;69.34
